MOL Commitment — 7JXG — position and weather

sailwx.info

Track history (hours):
 
Tides and Currents Weather Stations Pressure Air Temp Water Temp Dewpoint Dewpoint Depression Visibility Wind Speed Wind Dir Waves Ship Positions

MOL Commitment

Last reported at 2018-Jan-18 11:44 UTC. Time now 2018-Jan-19 15:18 UTC.
Position N 23°59' E 118°40'.

Length 316 m; draft 12.4 m.

Type: Ship (hazmat cat A). MMSI: 431332000.

Date/timePositionNaut miles runAvg speedWind from/ knotsBaromVisibWave heightAir tempDewpointWater temp
2018-Jan-18 11:44N 23°59' E 118°40'722.0
2018-Jan-18 11:26N 23°55' E 118°34'1021.6
2018-Jan-18 10:58N 23°50' E 118°25'  
2018-Jan-09 20:13N 01°14' E 104°03'417.8
2018-Jan-09 19:59N 01°14' E 103°59'815.8
2018-Jan-09 19:30N 01°12' E 103°52'4 8.8
2018-Jan-09 19:00N 01°13' E 103°48'510.1
2018-Jan-09 18:30N 01°17' E 103°45'1 1.4
2018-Jan-09 17:58N 01°17' E 103°46'0 0.0
2018-Jan-09 17:28N 01°17' E 103°46'0 0.0
2018-Jan-09 16:58N 01°17' E 103°46'0 0.0
2018-Jan-09 16:28N 01°17' E 103°46'0 0.0
2018-Jan-09 15:58N 01°17' E 103°46'0 0.0
2018-Jan-09 15:28N 01°17' E 103°46'0 0.0
2018-Jan-09 14:58N 01°17' E 103°46'0 0.0
2018-Jan-09 14:25N 01°17' E 103°46'0 0.0
2018-Jan-09 13:58N 01°17' E 103°46'0 0.0
2018-Jan-09 13:28N 01°17' E 103°46'0 0.0
2018-Jan-09 12:58N 01°17' E 103°46'0 0.0
2018-Jan-09 12:28N 01°17' E 103°46'0 0.0
2018-Jan-09 11:58N 01°17' E 103°46'0 0.0
2018-Jan-09 11:28N 01°17' E 103°46'0 0.0
2018-Jan-09 10:52N 01°17' E 103°46'0 0.0
2018-Jan-09 10:22N 01°17' E 103°46'0 0.0
2018-Jan-09 09:55N 01°17' E 103°46'0 0.0
2018-Jan-09 09:28N 01°17' E 103°46'0 0.0
2018-Jan-09 08:55N 01°17' E 103°46'0 0.0
2018-Jan-09 08:28N 01°17' E 103°46'0 0.0
2018-Jan-09 07:52N 01°17' E 103°46'0 0.0
2018-Jan-09 07:25N 01°17' E 103°46'0 0.0
2018-Jan-09 06:58N 01°17' E 103°46'0 0.0
2018-Jan-09 06:28N 01°17' E 103°46'0 0.0
2018-Jan-09 05:58N 01°17' E 103°46'0 0.0
2018-Jan-09 05:28N 01°17' E 103°46'0 0.0
2018-Jan-09 04:58N 01°17' E 103°46'0 0.0
2018-Jan-09 04:28N 01°17' E 103°46'0 0.0
2018-Jan-09 03:58N 01°17' E 103°46'0 0.0
2018-Jan-09 03:28N 01°17' E 103°46'0 0.0
2018-Jan-09 02:55N 01°17' E 103°46'0 0.0
2018-Jan-09 02:22N 01°17' E 103°46'0 0.0
2018-Jan-09 01:58N 01°17' E 103°46'0 0.0
2018-Jan-09 01:28N 01°17' E 103°46'0 0.0
2018-Jan-09 00:58N 01°17' E 103°46'0 0.0
2018-Jan-09 00:28N 01°17' E 103°46'0 0.0
2018-Jan-08 23:55N 01°17' E 103°46'0 0.0
2018-Jan-08 23:28N 01°17' E 103°46'0 0.0
2018-Jan-08 22:58N 01°17' E 103°46'0 0.0
2018-Jan-08 22:28N 01°17' E 103°46'0 0.0
2018-Jan-08 21:52N 01°17' E 103°46'0 0.0
2018-Jan-08 21:28N 01°17' E 103°46'0 0.0
2018-Jan-08 20:58N 01°17' E 103°46'0 0.0
2018-Jan-08 20:25N 01°17' E 103°46'0 0.0
2018-Jan-08 19:58N 01°17' E 103°46'0 0.0
2018-Jan-08 19:25N 01°17' E 103°46'0 0.0
2018-Jan-08 18:55N 01°17' E 103°46'0 0.0
2018-Jan-08 18:28N 01°17' E 103°46'0 0.0
2018-Jan-08 17:55N 01°17' E 103°46'0 0.0
2018-Jan-08 17:28N 01°17' E 103°46'0 0.4
2018-Jan-08 17:00N 01°17' E 103°46'1 2.1
2018-Jan-08 16:30N 01°16' E 103°45'510.2
2018-Jan-08 16:01N 01°13' E 103°49'510.6
2018-Jan-08 15:30N 01°14' E 103°54'3 6.7
2018-Jan-08 14:59N 01°15' E 103°57'5 9.7
2018-Jan-08 14:30N 01°16' E 104°02'6 9.8
2018-Jan-08 13:54N 01°17' E 104°08'410.1
2018-Jan-08 13:30N 01°17' E 104°12'911.0
2018-Jan-08 12:38N 01°20' E 104°21'110.6
2018-Jan-08 12:30N 01°21' E 104°22'  
Track history (hours):
 
Tides and Currents Weather Stations Pressure Air Temp Water Temp Dewpoint Dewpoint Depression Visibility Wind Speed Wind Dir Waves Ship Positions

MOL Commitment

Last reported at 2018-Jan-18 11:44 UTC. Time now 2018-Jan-19 15:18 UTC.
Position N 23°59' E 118°40'.

Length 316 m; draft 12.4 m.

Type: Ship (hazmat cat A). MMSI: 431332000.

Date/timePositionNaut miles runAvg speedWind from/ knotsBaromVisibWave heightAir tempDewpointWater temp
2018-Jan-18 11:44N 23°59' E 118°40'722.0
2018-Jan-18 11:26N 23°55' E 118°34'1021.6
2018-Jan-18 10:58N 23°50' E 118°25'  
2018-Jan-09 20:13N 01°14' E 104°03'417.8
2018-Jan-09 19:59N 01°14' E 103°59'815.8
2018-Jan-09 19:30N 01°12' E 103°52'4 8.8
2018-Jan-09 19:00N 01°13' E 103°48'510.1
2018-Jan-09 18:30N 01°17' E 103°45'1 1.4
2018-Jan-09 17:58N 01°17' E 103°46'0 0.0
2018-Jan-09 17:28N 01°17' E 103°46'0 0.0
2018-Jan-09 16:58N 01°17' E 103°46'0 0.0
2018-Jan-09 16:28N 01°17' E 103°46'0 0.0
2018-Jan-09 15:58N 01°17' E 103°46'0 0.0
2018-Jan-09 15:28N 01°17' E 103°46'0 0.0
2018-Jan-09 14:58N 01°17' E 103°46'0 0.0
2018-Jan-09 14:25N 01°17' E 103°46'0 0.0
2018-Jan-09 13:58N 01°17' E 103°46'0 0.0
2018-Jan-09 13:28N 01°17' E 103°46'0 0.0
2018-Jan-09 12:58N 01°17' E 103°46'0 0.0
2018-Jan-09 12:28N 01°17' E 103°46'0 0.0
2018-Jan-09 11:58N 01°17' E 103°46'0 0.0
2018-Jan-09 11:28N 01°17' E 103°46'0 0.0
2018-Jan-09 10:52N 01°17' E 103°46'0 0.0
2018-Jan-09 10:22N 01°17' E 103°46'0 0.0
2018-Jan-09 09:55N 01°17' E 103°46'0 0.0
2018-Jan-09 09:28N 01°17' E 103°46'0 0.0
2018-Jan-09 08:55N 01°17' E 103°46'0 0.0
2018-Jan-09 08:28N 01°17' E 103°46'0 0.0
2018-Jan-09 07:52N 01°17' E 103°46'0 0.0
2018-Jan-09 07:25N 01°17' E 103°46'0 0.0
2018-Jan-09 06:58N 01°17' E 103°46'0 0.0
2018-Jan-09 06:28N 01°17' E 103°46'0 0.0
2018-Jan-09 05:58N 01°17' E 103°46'0 0.0
2018-Jan-09 05:28N 01°17' E 103°46'0 0.0
2018-Jan-09 04:58N 01°17' E 103°46'0 0.0
2018-Jan-09 04:28N 01°17' E 103°46'0 0.0
2018-Jan-09 03:58N 01°17' E 103°46'0 0.0
2018-Jan-09 03:28N 01°17' E 103°46'0 0.0
2018-Jan-09 02:55N 01°17' E 103°46'0 0.0
2018-Jan-09 02:22N 01°17' E 103°46'0 0.0
2018-Jan-09 01:58N 01°17' E 103°46'0 0.0
2018-Jan-09 01:28N 01°17' E 103°46'0 0.0
2018-Jan-09 00:58N 01°17' E 103°46'0 0.0
2018-Jan-09 00:28N 01°17' E 103°46'0 0.0
2018-Jan-08 23:55N 01°17' E 103°46'0 0.0
2018-Jan-08 23:28N 01°17' E 103°46'0 0.0
2018-Jan-08 22:58N 01°17' E 103°46'0 0.0
2018-Jan-08 22:28N 01°17' E 103°46'0 0.0
2018-Jan-08 21:52N 01°17' E 103°46'0 0.0
2018-Jan-08 21:28N 01°17' E 103°46'0 0.0
2018-Jan-08 20:58N 01°17' E 103°46'0 0.0
2018-Jan-08 20:25N 01°17' E 103°46'0 0.0
2018-Jan-08 19:58N 01°17' E 103°46'0 0.0
2018-Jan-08 19:25N 01°17' E 103°46'0 0.0
2018-Jan-08 18:55N 01°17' E 103°46'0 0.0
2018-Jan-08 18:28N 01°17' E 103°46'0 0.0
2018-Jan-08 17:55N 01°17' E 103°46'0 0.0
2018-Jan-08 17:28N 01°17' E 103°46'0 0.4
2018-Jan-08 17:00N 01°17' E 103°46'1 2.1
2018-Jan-08 16:30N 01°16' E 103°45'510.2
2018-Jan-08 16:01N 01°13' E 103°49'510.6
2018-Jan-08 15:30N 01°14' E 103°54'3 6.7
2018-Jan-08 14:59N 01°15' E 103°57'5 9.7
2018-Jan-08 14:30N 01°16' E 104°02'6 9.8
2018-Jan-08 13:54N 01°17' E 104°08'410.1
2018-Jan-08 13:30N 01°17' E 104°12'911.0
2018-Jan-08 12:38N 01°20' E 104°21'110.6
2018-Jan-08 12:30N 01°21' E 104°22'  

Dump ship's entire track history